Observation data for Olton on 06/25/2019      Previous  Date  Next       Current Mesonet Observations  Soil Data  Daily Summary Page  Observations in Plain Language
KONS 250500Z 14012KT 22/19 A30 RMK A01 T02230186  RH  082%=      5-min Rain = 0
KONS 250505Z 14012G17KT 22/19 A30 RMK A01 T02240188  RH  082%=      5-min Rain = 0
KONS 250510Z 14013G18KT 23/19 A30 RMK A01 T02260190  RH  082%=      5-min Rain = 0
KONS 250515Z 14013KT 23/19 A30 RMK A01 T02250190  RH  083%=      5-min Rain = 0
KONS 250520Z 15014G20KT 22/19 A2999 RMK A01 T02230192  RH  085%=      5-min Rain = 0
KONS 250525Z 15014KT 22/19 A2999 RMK A01 T02220193  RH  086%=      5-min Rain = 0
KONS 250530Z 15013KT 22/19 A2999 RMK A01 T02210193  RH  087%=      5-min Rain = 0
KONS 250535Z 15012KT 22/19 A2999 RMK A01 T02200194  RH  087%=      5-min Rain = 0
KONS 250540Z 14011KT 22/19 A2999 RMK A01 T02180194  RH  088%=      5-min Rain = 0
KONS 250545Z 14010KT 22/19 A2999 RMK A01 T02170194  RH  089%=      5-min Rain = 0
KONS 250550Z 15011KT 22/20 A2998 RMK A01 T02160195  RH  090%=      5-min Rain = 0
KONS 250555Z 15011KT 22/20 A2998 RMK A01 T02160195  RH  091%=      5-min Rain = 0
KONS 250600Z 14010KT 22/20 A2998 RMK A01 T02150195  RH  091%=      5-min Rain = 0
KONS 250605Z 14010KT 21/20 A2998 RMK A01 T02130195  RH  092%=      5-min Rain = 0
KONS 250610Z 15011G16KT 21/20 A2998 RMK A01 T02140196  RH  092%=      5-min Rain = 0
KONS 250615Z 15012KT 22/20 A2998 RMK A01 T02150198  RH  093%=      5-min Rain = 0
KONS 250620Z 15012KT 22/20 A2998 RMK A01 T02150199  RH  093%=      5-min Rain = 0
KONS 250625Z 15012KT 22/20 A2998 RMK A01 T02150200  RH  093%=      5-min Rain = 0
KONS 250630Z 16011G16KT 22/20 A2998 RMK A01 T02150200  RH  093%=      5-min Rain = 0
KONS 250635Z 16011KT 22/20 A2998 RMK A01 T02150199  RH  093%=      5-min Rain = 0
KONS 250640Z 17011G16KT 21/20 A2998 RMK A01 T02130197  RH  093%=      5-min Rain = 0
KONS 250645Z 17011KT 21/20 A2998 RMK A01 T02120196  RH  093%=      5-min Rain = 0
KONS 250650Z 17012KT 21/19 A2998 RMK A01 T02110194  RH  093%=      5-min Rain = 0
KONS 250655Z 17013G18KT 21/19 A2998 RMK A01 T02100193  RH  092%=      5-min Rain = 0
KONS 250700Z 17015G20KT 21/19 A2998 RMK A01 T02090187  RH  090%=      5-min Rain = 0
KONS 250705Z 17013G18KT 21/18 A2998 RMK A01 T02080176  RH  084%=      5-min Rain = 0
KONS 250710Z 17013G18KT 21/17 A2997 RMK A01 T02080166  RH  079%=      5-min Rain = 0
KONS 250715Z 17012KT 21/16 A2997 RMK A01 T02060160  RH  077%=      5-min Rain = 0
KONS 250720Z 17010KT 20/16 A2998 RMK A01 T02040157  RH  076%=      5-min Rain = 0
KONS 250725Z 17010KT 20/16 A2998 RMK A01 T02000155  RH  077%=      5-min Rain = 0
KONS 250730Z 18009KT 20/16 A2998 RMK A01 T01970155  RH  079%=      5-min Rain = 0
KONS 250735Z 18008KT 20/16 A2998 RMK A01 T01950156  RH  080%=      5-min Rain = 0
KONS 250740Z 18008KT 19/16 A2998 RMK A01 T01920156  RH  082%=      5-min Rain = 0
KONS 250745Z 19008KT 19/16 A2998 RMK A01 T01900155  RH  082%=      5-min Rain = 0
KONS 250750Z 18008KT 19/15 A2998 RMK A01 T01880154  RH  082%=      5-min Rain = 0
KONS 250755Z 18008KT 19/15 A2998 RMK A01 T01850152  RH  083%=      5-min Rain = 0
KONS 250800Z 18008KT 18/15 A2998 RMK A01 T01830150  RH  083%=      5-min Rain = 0
KONS 250805Z 19008KT 18/15 A2998 RMK A01 T01810149  RH  084%=      5-min Rain = 0
KONS 250810Z 19008KT 18/15 A2998 RMK A01 T01800148  RH  083%=      5-min Rain = 0
KONS 250815Z 19007KT 18/15 A2998 RMK A01 T01800147  RH  083%=      5-min Rain = 0
KONS 250820Z 19007KT 18/15 A2998 RMK A01 T01770145  RH  083%=      5-min Rain = 0
KONS 250825Z 19006KT 18/15 A2998 RMK A01 T01750145  RH  084%=      5-min Rain = 0
KONS 250830Z 19005KT 17/14 A2998 RMK A01 T01720144  RH  085%=      5-min Rain = 0
KONS 250835Z 18005KT 17/14 A2998 RMK A01 T01700143  RH  086%=      5-min Rain = 0
KONS 250840Z 19006KT 17/14 A2998 RMK A01 T01680143  RH  087%=      5-min Rain = 0
KONS 250845Z 19006KT 17/14 A2998 RMK A01 T01680144  RH  088%=      5-min Rain = 0
KONS 250850Z 19005KT 17/14 A2998 RMK A01 T01680144  RH  088%=      5-min Rain = 0
KONS 250855Z 19006KT 17/14 A2997 RMK A01 T01670144  RH  088%=      5-min Rain = 0
KONS 250900Z 20006KT 17/14 A2997 RMK A01 T01660143  RH  088%=      5-min Rain = 0
KONS 250905Z 20005KT 17/14 A2997 RMK A01 T01650143  RH  089%=      5-min Rain = 0
KONS 250910Z 20005KT 16/14 A2998 RMK A01 T01640142  RH  089%=      5-min Rain = 0
KONS 250915Z 19005KT 16/14 A2998 RMK A01 T01640142  RH  089%=      5-min Rain = 0
KONS 250920Z 18004KT 16/14 A2998 RMK A01 T01620141  RH  089%=      5-min Rain = 0
KONS 250925Z 18004KT 16/14 A2998 RMK A01 T01610140  RH  089%=      5-min Rain = 0
KONS 250930Z 19004KT 16/14 A2998 RMK A01 T01610140  RH  089%=      5-min Rain = 0
KONS 250935Z 20005KT 16/14 A2998 RMK A01 T01610140  RH  089%=      5-min Rain = 0
KONS 250940Z 22005KT 16/14 A2998 RMK A01 T01610141  RH  090%=      5-min Rain = 0
KONS 250945Z 21006KT 16/14 A2998 RMK A01 T01580138  RH  090%=      5-min Rain = 0
KONS 250950Z 20007KT 16/13 A2998 RMK A01 T01550134  RH  089%=      5-min Rain = 0
KONS 250955Z 20008KT 15/14 A2999 RMK A01 T01540135  RH  090%=      5-min Rain = 0
KONS 251000Z 20007KT 16/14 A2999 RMK A01 T01570139  RH  091%=      5-min Rain = 0
KONS 251005Z 20008KT 16/14 A2999 RMK A01 T01570139  RH  090%=      5-min Rain = 0
KONS 251010Z 20007KT 16/14 A2999 RMK A01 T01580138  RH  090%=      5-min Rain = 0
KONS 251015Z 19007KT 16/14 A2999 RMK A01 T01580137  RH  089%=      5-min Rain = 0
KONS 251020Z 19007KT 16/14 A2999 RMK A01 T01580137  RH  089%=      5-min Rain = 0
KONS 251025Z 20006KT 16/14 A2999 RMK A01 T01590138  RH  089%=      5-min Rain = 0
KONS 251030Z 20006KT 16/14 A2999 RMK A01 T01590137  RH  089%=      5-min Rain = 0
KONS 251035Z 20006KT 16/14 A2999 RMK A01 T01600137  RH  088%=      5-min Rain = 0
KONS 251040Z 20006KT 16/14 A30 RMK A01 T01590135  RH  088%=      5-min Rain = 0
KONS 251045Z 20006KT 16/13 A30 RMK A01 T01580134  RH  088%=      5-min Rain = 0
KONS 251050Z 19006KT 16/13 A30 RMK A01 T01560133  RH  088%=      5-min Rain = 0
KONS 251055Z 20007KT 16/13 A30 RMK A01 T01550133  RH  088%=      5-min Rain = 0
KONS 251100Z 21007KT 16/13 A30 RMK A01 T01560134  RH  088%=      5-min Rain = 0
KONS 251105Z 21007KT 16/13 A30 RMK A01 T01560133  RH  088%=      5-min Rain = 0
KONS 251110Z 21007KT 16/13 A30 RMK A01 T01550132  RH  088%=      5-min Rain = 0
KONS 251115Z 22006KT 16/13 A30 RMK A01 T01550132  RH  088%=      5-min Rain = 0
KONS 251120Z 22006KT 16/13 A3001 RMK A01 T01550132  RH  088%=      5-min Rain = 0
KONS 251125Z 23005KT 15/13 A3001 RMK A01 T01530130  RH  088%=      5-min Rain = 0
KONS 251130Z 24004KT 15/13 A3001 RMK A01 T01500129  RH  089%=      5-min Rain = 0
KONS 251135Z 25004KT 15/13 A3001 RMK A01 T01480127  RH  089%=      5-min Rain = 0
KONS 251140Z 26004KT 15/13 A3002 RMK A01 T01470127  RH  090%=      5-min Rain = 0
KONS 251145Z 28004KT 15/13 A3002 RMK A01 T01470128  RH  090%=      5-min Rain = 0
KONS 251150Z 29004KT 15/13 A3002 RMK A01 T01460128  RH  090%=      5-min Rain = 0
KONS 251155Z 28003KT 15/13 A3002 RMK A01 T01460128  RH  091%=      5-min Rain = 0
KONS 251200Z 27004KT 15/13 A3003 RMK A01 T01460129  RH  091%=      5-min Rain = 0
KONS 251205Z 28004KT 15/13 A3003 RMK A01 T01480130  RH  091%=      5-min Rain = 0
KONS 251210Z 29004KT 15/13 A3003 RMK A01 T01490130  RH  091%=      5-min Rain = 0
KONS 251215Z 30003KT 15/13 A3003 RMK A01 T01500131  RH  090%=      5-min Rain = 0
KONS 251220Z 31004KT 15/13 A3003 RMK A01 T01510132  RH  090%=      5-min Rain = 0
KONS 251225Z 31003KT 15/14 A3003 RMK A01 T01540135  RH  090%=      5-min Rain = 0
KONS 251230Z 29001KT 16/14 A3003 RMK A01 T01580139  RH  090%=      5-min Rain = 0
KONS 251235Z 32001KT 16/14 A3003 RMK A01 T01620141  RH  089%=      5-min Rain = 0
KONS 251240Z 34001KT 17/14 A3003 RMK A01 T01650141  RH  087%=      5-min Rain = 0
KONS 251245Z 32000KT 17/14 A3003 RMK A01 T01690141  RH  085%=      5-min Rain = 0
KONS 251250Z 28001KT 17/14 A3003 RMK A01 T01720140  RH  083%=      5-min Rain = 0
KONS 251255Z 27002KT 18/14 A3003 RMK A01 T01750138  RH  081%=      5-min Rain = 0
KONS 251300Z 25002KT 18/14 A3004 RMK A01 T01770137  RH  079%=      5-min Rain = 0
KONS 251305Z 24003KT 18/14 A3004 RMK A01 T01800137  RH  078%=      5-min Rain = 0
KONS 251310Z 24004KT 18/14 A3003 RMK A01 T01810136  RH  077%=      5-min Rain = 0
KONS 251315Z 23004KT 18/14 A3004 RMK A01 T01820138  RH  077%=      5-min Rain = 0
KONS 251320Z 23005KT 18/14 A3004 RMK A01 T01840138  RH  076%=      5-min Rain = 0
KONS 251325Z 23004KT 19/14 A3004 RMK A01 T01870142  RH  076%=      5-min Rain = 0
KONS 251330Z 23006KT 19/14 A3004 RMK A01 T01930140  RH  073%=      5-min Rain = 0
KONS 251335Z 24005KT 20/14 A3004 RMK A01 T01980141  RH  071%=      5-min Rain = 0
KONS 251340Z 23006KT 21/14 A3004 RMK A01 T02050140  RH  068%=      5-min Rain = 0
KONS 251345Z 23008KT 21/14 A3004 RMK A01 T02100137  RH  064%=      5-min Rain = 0
KONS 251350Z 23008KT 21/14 A3004 RMK A01 T02110136  RH  064%=      5-min Rain = 0
KONS 251355Z 22008KT 21/14 A3004 RMK A01 T02130136  RH  063%=      5-min Rain = 0
KONS 251400Z 22009KT 21/14 A3004 RMK A01 T02130135  RH  062%=      5-min Rain = 0
KONS 251405Z 22008G14KT 22/14 A3004 RMK A01 T02170139  RH  063%=      5-min Rain = 0
KONS 251410Z 23010KT 22/14 A3004 RMK A01 T02190138  RH  061%=      5-min Rain = 0
KONS 251415Z 22010KT 22/14 A3004 RMK A01 T02230141  RH  061%=      5-min Rain = 0
KONS 251420Z 23012KT 22/14 A3004 RMK A01 T02240141  RH  060%=      5-min Rain = 0
KONS 251425Z 22011KT 23/14 A3004 RMK A01 T02250142  RH  061%=      5-min Rain = 0
KONS 251430Z 22013KT 23/15 A3004 RMK A01 T02300146  RH  061%=      5-min Rain = 0
KONS 251435Z 21012G17KT 23/15 A3004 RMK A01 T02310147  RH  060%=      5-min Rain = 0
KONS 251440Z 22014KT 23/15 A3004 RMK A01 T02330147  RH  060%=      5-min Rain = 0
KONS 251445Z 21014KT 24/15 A3004 RMK A01 T02350148  RH  059%=      5-min Rain = 0
KONS 251450Z 22014KT 24/15 A3004 RMK A01 T02350147  RH  059%=      5-min Rain = 0
KONS 251455Z 21012KT 24/15 A3004 RMK A01 T02390149  RH  058%=      5-min Rain = 0
KONS 251500Z 22012KT 24/15 A3004 RMK A01 T02410148  RH  057%=      5-min Rain = 0
KONS 251505Z 22012KT 24/15 A3004 RMK A01 T02420148  RH  057%=      5-min Rain = 0
KONS 251510Z 21013KT 25/15 A3004 RMK A01 T02450149  RH  056%=      5-min Rain = 0
KONS 251515Z 21012KT 25/15 A3004 RMK A01 T02470149  RH  056%=      5-min Rain = 0
KONS 251520Z 21012KT 25/15 A3004 RMK A01 T02490149  RH  055%=      5-min Rain = 0
KONS 251525Z 22012KT 25/15 A3004 RMK A01 T02490147  RH  054%=      5-min Rain = 0
KONS 251530Z 21011KT 25/15 A3004 RMK A01 T02510149  RH  054%=      5-min Rain = 0
KONS 251535Z 20012G17KT 26/15 A3004 RMK A01 T02550148  RH  053%=      5-min Rain = 0
KONS 251540Z 21013KT 26/15 A3004 RMK A01 T02560147  RH  052%=      5-min Rain = 0
KONS 251545Z 22014KT 26/15 A3003 RMK A01 T02580147  RH  051%=      5-min Rain = 0
KONS 251550Z 22012KT 26/15 A3003 RMK A01 T02620148  RH  051%=      5-min Rain = 0
KONS 251555Z 22011KT 27/15 A3003 RMK A01 T02660149  RH  050%=      5-min Rain = 0
KONS 251600Z 21012KT 27/15 A3003 RMK A01 T02700148  RH  048%=      5-min Rain = 0
KONS 251605Z 21010KT 27/15 A3003 RMK A01 T02710150  RH  048%=      5-min Rain = 0
KONS 251610Z 22011KT 28/15 A3003 RMK A01 T02750148  RH  047%=      5-min Rain = 0
KONS 251615Z 21012KT 28/15 A3003 RMK A01 T02750147  RH  046%=      5-min Rain = 0
KONS 251620Z 21010KT 28/15 A3003 RMK A01 T02750147  RH  047%=      5-min Rain = 0
KONS 251625Z 21011G16KT 28/15 A3003 RMK A01 T02820149  RH  045%=      5-min Rain = 0
KONS 251630Z 22011KT 28/15 A3003 RMK A01 T02830145  RH  044%=      5-min Rain = 0
KONS 251635Z 22010G16KT 29/15 A3003 RMK A01 T02890147  RH  043%=      5-min Rain = 0
KONS 251640Z 22012KT 29/14 A3003 RMK A01 T02870142  RH  042%=      5-min Rain = 0
KONS 251645Z 21011KT 29/15 A3003 RMK A01 T02910146  RH  042%=      5-min Rain = 0
KONS 251650Z 21010KT 29/14 A3003 RMK A01 T02910144  RH  041%=      5-min Rain = 0
KONS 251655Z 21009G14KT 30/14 A3003 RMK A01 T02970143  RH  040%=      5-min Rain = 0
KONS 251700Z 20011KT 30/14 A3003 RMK A01 T03010142  RH  039%=      5-min Rain = 0
KONS 251705Z 21010KT 30/14 A3003 RMK A01 T03010143  RH  039%=      5-min Rain = 0
KONS 251710Z 21011KT 31/14 A3003 RMK A01 T03050139  RH  037%=      5-min Rain = 0
KONS 251715Z 22010KT 31/14 A3003 RMK A01 T03080136  RH  036%=      5-min Rain = 0
KONS 251720Z 22010KT 31/14 A3003 RMK A01 T03100135  RH  035%=      5-min Rain = 0
KONS 251725Z 22010KT 31/14 A3003 RMK A01 T03120137  RH  035%=      5-min Rain = 0
KONS 251730Z 21010KT 31/13 A3003 RMK A01 T03140130  RH  033%=      5-min Rain = 0
KONS 251735Z 22010KT 32/13 A3002 RMK A01 T03170132  RH  033%=      5-min Rain = 0
KONS 251740Z 20011KT 32/13 A3002 RMK A01 T03180127  RH  032%=      5-min Rain = 0
KONS 251745Z 20009G15KT 32/12 A3002 RMK A01 T03190124  RH  031%=      5-min Rain = 0
KONS 251750Z 21012KT 32/11 A3002 RMK A01 T03200113  RH  029%=      5-min Rain = 0
KONS 251755Z 20010G17KT 33/12 A3002 RMK A01 T03260123  RH  030%=      5-min Rain = 0
KONS 251800Z 17010KT 33/11 A3002 RMK A01 T03250111  RH  027%=      5-min Rain = 0
KONS 251805Z 19009G14KT 33/11 A3002 RMK A01 T03280109  RH  027%=      5-min Rain = 0
KONS 251810Z 18011G18KT 33/10 A3002 RMK A01 T03290103  RH  025%=      5-min Rain = 0
KONS 251815Z 19012G18KT 33/09 A3002 RMK A01 T03310093  RH  024%=      5-min Rain = 0
KONS 251820Z 19010G17KT 33/11 A3001 RMK A01 T03310106  RH  026%=      5-min Rain = 0
KONS 251825Z 18010G16KT 33/10 A3001 RMK A01 T03310098  RH  024%=      5-min Rain = 0
KONS 251830Z 17013KT 33/10 A3001 RMK A01 T03320099  RH  024%=      5-min Rain = 0
KONS 251835Z 18012G18KT 34/09 A3001 RMK A01 T03350088  RH  022%=      5-min Rain = 0
KONS 251840Z 17011G17KT 34/10 A3001 RMK A01 T03350096  RH  024%=      5-min Rain = 0
KONS 251845Z 21012KT 34/09 A3001 RMK A01 T03380092  RH  023%=      5-min Rain = 0
KONS 251850Z 19010KT 34/09 A3001 RMK A01 T03360087  RH  022%=      5-min Rain = 0
KONS 251855Z 20010G16KT 34/09 A3001 RMK A01 T03420085  RH  021%=      5-min Rain = 0
KONS 251900Z 17012G18KT 34/08 A3001 RMK A01 T03430076  RH  020%=      5-min Rain = 0
KONS 251905Z 16010G16KT 34/07 A30 RMK A01 T03400069  RH  019%=      5-min Rain = 0
KONS 251910Z 18011G17KT 34/07 A30 RMK A01 T03430068  RH  019%=      5-min Rain = 0
KONS 251915Z 18011G17KT 34/05 A30 RMK A01 T03440053  RH  017%=      5-min Rain = 0
KONS 251920Z 17011G17KT 35/06 A30 RMK A01 T03470057  RH  017%=      5-min Rain = 0
KONS 251925Z 19010G17KT 34/06 A30 RMK A01 T03440061  RH  018%=      5-min Rain = 0
KONS 251930Z 18012G21KT 35/05 A30 RMK A01 T03480054  RH  016%=      5-min Rain = 0
KONS 251935Z 18011G16KT 35/05 A30 RMK A01 T03460047  RH  016%=      5-min Rain = 0
KONS 251940Z 19006G13KT 34/05 A30 RMK A01 T03440054  RH  017%=      5-min Rain = 0
KONS 251945Z 18011G19KT 35/05 A2999 RMK A01 T03470054  RH  016%=      5-min Rain = 0
KONS 251950Z 19009G15KT 35/06 A2999 RMK A01 T03520061  RH  017%=      5-min Rain = 0
KONS 251955Z 20008G14KT 35/05 A2999 RMK A01 T03500053  RH  016%=      5-min Rain = 0
KONS 252000Z 18012G17KT 35/05 A2999 RMK A01 T03520054  RH  016%=      5-min Rain = 0
KONS 252005Z 18013G19KT 36/05 A2999 RMK A01 T03560054  RH  016%=      5-min Rain = 0
KONS 252010Z 18009G18KT 35/06 A2998 RMK A01 T03530058  RH  016%=      5-min Rain = 0
KONS 252015Z 18011G18KT 35/06 A2998 RMK A01 T03530061  RH  017%=      5-min Rain = 0
KONS 252020Z 21011G16KT 36/06 A2998 RMK A01 T03550059  RH  016%=      5-min Rain = 0
KONS 252025Z 20010G28KT 34/05 A2998 RMK A01 T03440045  RH  016%=      5-min Rain = 0
KONS 252030Z 15012G18KT 36/06 A2998 RMK A01 T03560055  RH  016%=      5-min Rain = 0
KONS 252035Z 16010G15KT 35/05 A2998 RMK A01 T03520049  RH  015%=      5-min Rain = 0
KONS 252040Z 18011G17KT 36/06 A2998 RMK A01 T03560055  RH  016%=      5-min Rain = 0
KONS 252045Z 15010G17KT 35/05 A2997 RMK A01 T03530051  RH  016%=      5-min Rain = 0
KONS 252050Z 19015G21KT 36/05 A2997 RMK A01 T03560054  RH  016%=      5-min Rain = 0
KONS 252055Z 21013G20KT 35/04 A2997 RMK A01 T03510041  RH  015%=      5-min Rain = 0
KONS 252100Z 19012G22KT 35/05 A2996 RMK A01 T03520051  RH  016%=      5-min Rain = 0
KONS 252105Z 16013G19KT 36/06 A2996 RMK A01 T03570056  RH  016%=      5-min Rain = 0
KONS 252110Z 16014G19KT 36/06 A2996 RMK A01 T03570059  RH  016%=      5-min Rain = 0
KONS 252115Z 17017G25KT 36/07 A2996 RMK A01 T03590065  RH  017%=      5-min Rain = 0
KONS 252120Z 16015KT 35/09 A2996 RMK A01 T03520085  RH  020%=      5-min Rain = 0
KONS 252125Z 15018G26KT 35/10 A2996 RMK A01 T03520099  RH  022%=      5-min Rain = 0
KONS 252130Z 16019G25KT 35/09 A2996 RMK A01 T03500087  RH  020%=      5-min Rain = 0
KONS 252135Z 16016G23KT 35/08 A2996 RMK A01 T03480084  RH  020%=      5-min Rain = 0
KONS 252140Z 15018G23KT 35/08 A2995 RMK A01 T03480079  RH  019%=      5-min Rain = 0
KONS 252145Z 14017G22KT 33/08 A2995 RMK A01 T03330078  RH  021%=      5-min Rain = 0
KONS 252150Z 14017KT 34/08 A2995 RMK A01 T03400080  RH  020%=      5-min Rain = 0
KONS 252155Z 15020G26KT 34/10 A2995 RMK A01 T03430101  RH  023%=      5-min Rain = 0
KONS 252200Z 15020G28KT 34/11 A2994 RMK A01 T03440107  RH  024%=      5-min Rain = 0
KONS 252205Z 15020G27KT 34/11 A2994 RMK A01 T03380107  RH  025%=      5-min Rain = 0
KONS 252210Z 15019G26KT 34/11 A2994 RMK A01 T03410110  RH  025%=      5-min Rain = 0
KONS 252215Z 15020G25KT 34/12 A2994 RMK A01 T03350118  RH  027%=      5-min Rain = 0
KONS 252220Z 15022G27KT 33/11 A2994 RMK A01 T03290109  RH  027%=      5-min Rain = 0
KONS 252225Z 15022G27KT 33/12 A2994 RMK A01 T03340121  RH  028%=      5-min Rain = 0
KONS 252230Z 15021G27KT 34/12 A2994 RMK A01 T03350122  RH  028%=      5-min Rain = 0
KONS 252235Z 15020G27KT 34/13 A2994 RMK A01 T03350132  RH  030%=      5-min Rain = 0
KONS 252240Z 14020G25KT 33/13 A2994 RMK A01 T03320127  RH  029%=      5-min Rain = 0
KONS 252245Z 15019G25KT 33/13 A2994 RMK A01 T03320129  RH  030%=      5-min Rain = 0
KONS 252250Z 14022G29KT 33/14 A2993 RMK A01 T03320135  RH  031%=      5-min Rain = 0
KONS 252255Z 15019G26KT 33/13 A2993 RMK A01 T03300132  RH  031%=      5-min Rain = 0
KONS 252300Z 15018KT 33/12 A2993 RMK A01 T03330124  RH  029%=      5-min Rain = 0
KONS 252305Z 15020G25KT 33/12 A2993 RMK A01 T03320123  RH  029%=      5-min Rain = 0
KONS 252310Z 15018G25KT 33/13 A2993 RMK A01 T03330126  RH  029%=      5-min Rain = 0
KONS 252315Z 16019G24KT 33/12 A2993 RMK A01 T03310122  RH  028%=      5-min Rain = 0
KONS 252320Z 16018G24KT 33/12 A2993 RMK A01 T03320124  RH  029%=      5-min Rain = 0
KONS 252325Z 15021G27KT 33/12 A2993 RMK A01 T03300119  RH  028%=      5-min Rain = 0
KONS 252330Z 15020G30KT 33/12 A2992 RMK A01 T03290120  RH  029%=      5-min Rain = 0
KONS 252335Z 15020G26KT 33/12 A2992 RMK A01 T03270116  RH  028%=      5-min Rain = 0
KONS 252340Z 16020G25KT 33/11 A2992 RMK A01 T03270111  RH  027%=      5-min Rain = 0
KONS 252345Z 16021G26KT 33/11 A2992 RMK A01 T03270105  RH  026%=      5-min Rain = 0
KONS 252350Z 15022G27KT 33/10 A2991 RMK A01 T03250104  RH  026%=      5-min Rain = 0
KONS 252355Z 16018G24KT 33/10 A2991 RMK A01 T03250103  RH  026%=      5-min Rain = 0
KONS 260000Z 15018KT 33/10 A2991 RMK A01 T03250099  RH  025%=      5-min Rain = 0
KONS 260005Z 15018G25KT 32/10 A2992 RMK A01 T03240103  RH  026%=      5-min Rain = 0
KONS 260010Z 15019G26KT 32/10 A2992 RMK A01 T03210103  RH  027%=      5-min Rain = 0
KONS 260015Z 15020G27KT 32/11 A2992 RMK A01 T03200106  RH  027%=      5-min Rain = 0
KONS 260020Z 15019KT 32/11 A2993 RMK A01 T03180111  RH  029%=      5-min Rain = 0
KONS 260025Z 15019G25KT 32/12 A2993 RMK A01 T03160120  RH  031%=      5-min Rain = 0
KONS 260030Z 15018G23KT 31/13 A2993 RMK A01 T03130128  RH  033%=      5-min Rain = 0
KONS 260035Z 15020G25KT 31/13 A2993 RMK A01 T03110126  RH  033%=      5-min Rain = 0
KONS 260040Z 14020G26KT 31/13 A2994 RMK A01 T03080132  RH  035%=      5-min Rain = 0
KONS 260045Z 14018G24KT 31/14 A2994 RMK A01 T03060137  RH  036%=      5-min Rain = 0
KONS 260050Z 14020G28KT 30/14 A2994 RMK A01 T03030135  RH  036%=      5-min Rain = 0
KONS 260055Z 14019G28KT 30/13 A2994 RMK A01 T03010134  RH  037%=      5-min Rain = 0
KONS 260100Z 14020G27KT 30/14 A2995 RMK A01 T03000136  RH  037%=      5-min Rain = 0
KONS 260105Z 13021G26KT 30/14 A2995 RMK A01 T02970137  RH  038%=      5-min Rain = 0
KONS 260110Z 13020G28KT 30/14 A2996 RMK A01 T02950137  RH  039%=      5-min Rain = 0
KONS 260115Z 13022G29KT 29/14 A2996 RMK A01 T02940137  RH  039%=      5-min Rain = 0
KONS 260120Z 13021G29KT 29/14 A2996 RMK A01 T02920138  RH  040%=      5-min Rain = 0
KONS 260125Z 13018G25KT 29/14 A2997 RMK A01 T02900139  RH  040%=      5-min Rain = 0
KONS 260130Z 13017KT 29/14 A2997 RMK A01 T02870138  RH  041%=      5-min Rain = 0
KONS 260135Z 13017G25KT 29/14 A2998 RMK A01 T02860136  RH  041%=      5-min Rain = 0
KONS 260140Z 13019G26KT 29/14 A2998 RMK A01 T02860135  RH  040%=      5-min Rain = 0
KONS 260145Z 13015G20KT 28/13 A2999 RMK A01 T02840133  RH  040%=      5-min Rain = 0
KONS 260150Z 11014G21KT 28/14 A3001 RMK A01 T02820137  RH  042%=      5-min Rain = 0
KONS 260155Z 08020G29KT 27/13 A3002 RMK A01 T02710131  RH  043%=      5-min Rain = 0
KONS 260200Z 07019G25KT 24/12 A3003 RMK A01 T02350124  RH  051%=      5-min Rain = 0
KONS 260205Z 07023G31KT 23/12 A3003 RMK A01 T02280123  RH  052%=      5-min Rain = 0
KONS 260210Z 07021G31KT 23/12 A3003 RMK A01 T02270122  RH  052%=      5-min Rain = 0
KONS 260215Z 07021G30KT 23/12 A3004 RMK A01 T02260121  RH  052%=      5-min Rain = 0
KONS 260220Z 07020G27KT 23/12 A3004 RMK A01 T02260121  RH  053%=      5-min Rain = 0
KONS 260225Z 07020G25KT 23/12 A3005 RMK A01 T02260121  RH  053%=      5-min Rain = 0
KONS 260230Z 08016G21KT 23/12 A3005 RMK A01 T02260122  RH  053%=      5-min Rain = 0
KONS 260235Z 07020G25KT 23/12 A3005 RMK A01 T02300123  RH  052%=      5-min Rain = 0
KONS 260240Z 08016G22KT 23/13 A3005 RMK A01 T02310125  RH  052%=      5-min Rain = 0
KONS 260245Z 08020G27KT 23/13 A3005 RMK A01 T02330127  RH  052%=      5-min Rain = 0
KONS 260250Z 08023G30KT 23/13 A3005 RMK A01 T02340127  RH  052%=      5-min Rain = 0
KONS 260255Z 08023G30KT 23/13 A3006 RMK A01 T02330127  RH  052%=      5-min Rain = 0
KONS 260300Z 08024G29KT 23/13 A3006 RMK A01 T02320127  RH  053%=      5-min Rain = 0
KONS 260305Z 09021G30KT 23/13 A3006 RMK A01 T02310126  RH  053%=      5-min Rain = 0
KONS 260310Z 09021G26KT 23/13 A3006 RMK A01 T02310126  RH  053%=      5-min Rain = 0
KONS 260315Z 09019G27KT 23/13 A3006 RMK A01 T02310126  RH  052%=      5-min Rain = 0
KONS 260320Z 09020G26KT 23/13 A3006 RMK A01 T02300128  RH  054%=      5-min Rain = 0
KONS 260325Z 10021G30KT 23/13 A3006 RMK A01 T02310130  RH  054%=      5-min Rain = 0
KONS 260330Z 09020G25KT 23/13 A3007 RMK A01 T02290130  RH  055%=      5-min Rain = 0
KONS 260335Z 10018G24KT 23/13 A3007 RMK A01 T02270129  RH  055%=      5-min Rain = 0
KONS 260340Z 10020G26KT 23/13 A3007 RMK A01 T02290127  RH  054%=      5-min Rain = 0
KONS 260345Z 10019G26KT 23/13 A3007 RMK A01 T02300126  RH  053%=      5-min Rain = 0
KONS 260350Z 11021G29KT 23/12 A3008 RMK A01 T02330124  RH  051%=      5-min Rain = 0
KONS 260355Z 11020G26KT 24/12 A3008 RMK A01 T02360123  RH  050%=      5-min Rain = 0
KONS 260400Z 11021G29KT 24/12 A3008 RMK A01 T02380122  RH  049%=      5-min Rain = 0
KONS 260405Z 11019G26KT 24/12 A3008 RMK A01 T02370122  RH  050%=      5-min Rain = 0
KONS 260410Z 12019G25KT 24/12 A3008 RMK A01 T02360124  RH  050%=      5-min Rain = 0
KONS 260415Z 12018G25KT 23/13 A3008 RMK A01 T02340125  RH  051%=      5-min Rain = 0
KONS 260420Z 12020G27KT 24/13 A3008 RMK A01 T02360125  RH  051%=      5-min Rain = 0
KONS 260425Z 12020G27KT 24/13 A3008 RMK A01 T02370125  RH  050%=      5-min Rain = 0
KONS 260430Z 12019G25KT 24/13 A3009 RMK A01 T02370125  RH  050%=      5-min Rain = 0
KONS 260435Z 13018G27KT 24/13 A3011 RMK A01 T02370126  RH  051%=      5-min Rain = 0
KONS 260440Z 13016G23KT 24/13 A3011 RMK A01 T02350125  RH  051%=      5-min Rain = 0
KONS 260445Z 12016G25KT 24/13 A3011 RMK A01 T02350125  RH  051%=      5-min Rain = 0
KONS 260450Z 13017G24KT 24/12 A301 RMK A01 T02350124  RH  051%=      5-min Rain = 0
KONS 260455Z 13019G26KT 24/12 A301 RMK A01 T02350123  RH  051%=      5-min Rain = 0

Page generated in 0.0093 seconds.